KCDW/CDW METAR and TAF weather

Enter ICAO airport designator
Station Type Date Time Source
KCDW METAR 2022/06/25 22:53 UTC NOAA

KCDW 252253Z 34003KT 10SM CLR 32/11 A3007 RMK AO2 SLP185 T03170111


Station Type Date Time Source
KCDW Decoded METAR 2022/06/25 22:53 UTC NOAA

CALDWELL ESSEX COUNTY AIRPORT , NJ, United States (KCDW) 40-53N 074-17W 64M
Jun 25, 2022 - 06:53 PM EDT / 2022.06.25 2253 UTC
Wind: from the NNW (340 degrees) at 3 MPH (3 KT):0
Visibility: 10 mile(s):0
Sky conditions: clear
Temperature: 89.1 F (31.7 C)
Dew Point: 52.0 F (11.1 C)
Relative Humidity: 28%
Pressure (altimeter): 30.07 in. Hg (1018 hPa)
ob: KCDW 252253Z 34003KT 10SM CLR 32/11 A3007 RMK AO2 SLP185 T03170111
cycle: 23

Station Type Date Time Source
KCDW TAF UTC NOAA

Error!

Example: see airport list